< Typhoon 196718 1967 Season Typhoon 196720 >
Typhoon 196719 (KATE)
General InformationTrack Information on Google Maps || Disaster Info.ResourceGoogle EarthGE AnimationAtom FeedGeoJSON
Detalied Best Track (Time Zone = UTC)
Year Month Day Hour Lat. Long. Pressure (hPa) Wind (kt) Class Image Chart
1967 8 16 06 13.9 132.1 1004 0 2 -- Chart
1967 8 16 12 13.9 131.5 1004 0 2 -- Chart
1967 8 16 18 14.0 130.5 1004 0 2 -- Chart
1967 8 17 00 14.1 129.8 1002 0 2 -- Chart
1967 8 17 06 14.2 128.6 1002 0 2 -- Chart
1967 8 17 12 14.6 127.5 1002 0 2 -- Chart
1967 8 17 18 14.9 126.5 1000 0 2 -- Chart
1967 8 18 00 15.1 125.2 998 0 2 -- Chart
1967 8 18 06 15.7 124.3 998 0 2 -- Chart
1967 8 18 12 16.2 123.4 998 0 2 -- Chart
1967 8 18 18 16.9 122.3 996 0 2 -- Chart
1967 8 19 00 17.4 121.5 994 0 2 -- Chart
1967 8 19 06 18.0 120.3 992 0 2 -- Chart
1967 8 19 12 18.4 119.2 988 0 9 -- Chart
1967 8 19 18 18.7 118.1 986 0 9 -- Chart
1967 8 20 00 18.8 116.9 986 0 9 -- Chart
1967 8 20 06 18.9 115.9 986 0 9 -- Chart
1967 8 20 12 19.0 115.5 986 0 9 -- Chart
1967 8 20 18 19.5 115.0 986 0 9 -- Chart
1967 8 21 00 20.2 114.3 984 0 9 -- Chart
1967 8 21 06 21.4 113.6 982 0 9 -- Chart
1967 8 21 12 22.0 112.8 982 0 9 -- Chart
1967 8 21 18 23.1 111.9 990 0 9 -- Chart
1967 8 22 00 24.0 110.9 994 0 9 -- Chart
1967 8 22 06 24.8 110.1 996 0 2 -- Chart
1967 8 22 12 25.4 109.1 998 0 2 -- Chart
1967 8 22 18 26.0 108.5 998 0 2 -- Chart
1967 8 23 00 26.8 107.2 1000 0 2 -- Chart
1967 8 23 06 27.4 106.5 998 0 2 -- Chart
1967 8 23 12 28.0 105.6 996 0 2 -- Chart
1967 8 23 18 28.5 104.8 998 0 2 -- Chart
1967 8 24 00 29.0 103.8 1000 0 2 -- Chart
1967 8 24 06 29.0 103.0 998 0 2 -- Chart
1967 8 24 12 29.0 102.0 996 0 2 -- Chart
Japan Meteorological Agency Best Track Data | Correction Date : 1989-06-01
< Typhoon 196718 1967 Season Typhoon 196720 >

Help